sensor_id;sensor_type;location;lat;lon;timestamp;P1;durP1;ratioP1;P2;durP2;ratioP2
59555;SDS011;45374;52.746;6.304;2022-10-16T00:02:22;14.95;;;4.53;;
59555;SDS011;45374;52.746;6.304;2022-10-16T00:04:48;15.40;;;4.30;;
59555;SDS011;45374;52.746;6.304;2022-10-16T00:07:13;11.82;;;4.32;;
59555;SDS011;45374;52.746;6.304;2022-10-16T00:09:39;25.55;;;4.75;;
59555;SDS011;45374;52.746;6.304;2022-10-16T00:12:05;15.85;;;4.53;;
59555;SDS011;45374;52.746;6.304;2022-10-16T00:14:32;15.23;;;4.78;;
59555;SDS011;45374;52.746;6.304;2022-10-16T00:16:57;14.85;;;4.43;;
59555;SDS011;45374;52.746;6.304;2022-10-16T00:19:23;19.98;;;5.25;;
59555;SDS011;45374;52.746;6.304;2022-10-16T00:21:48;15.65;;;4.63;;
59555;SDS011;45374;52.746;6.304;2022-10-16T00:24:14;18.48;;;4.70;;
59555;SDS011;45374;52.746;6.304;2022-10-16T00:26:40;14.60;;;5.20;;
59555;SDS011;45374;52.746;6.304;2022-10-16T00:29:06;14.38;;;4.80;;
59555;SDS011;45374;52.746;6.304;2022-10-16T00:31:32;18.15;;;4.45;;
59555;SDS011;45374;52.746;6.304;2022-10-16T00:33:58;12.63;;;4.60;;
59555;SDS011;45374;52.746;6.304;2022-10-16T00:36:24;17.13;;;5.00;;
59555;SDS011;45374;52.746;6.304;2022-10-16T00:38:51;15.30;;;4.78;;
59555;SDS011;45374;52.746;6.304;2022-10-16T00:41:19;19.88;;;4.63;;
59555;SDS011;45374;52.746;6.304;2022-10-16T00:43:47;15.40;;;5.18;;
59555;SDS011;45374;52.746;6.304;2022-10-16T00:48:47;14.15;;;4.90;;
59555;SDS011;45374;52.746;6.304;2022-10-16T00:51:21;15.63;;;5.30;;
59555;SDS011;45374;52.746;6.304;2022-10-16T00:53:51;19.70;;;5.65;;
59555;SDS011;45374;52.746;6.304;2022-10-16T00:56:17;23.52;;;5.28;;
59555;SDS011;45374;52.746;6.304;2022-10-16T00:58:43;17.58;;;5.00;;
59555;SDS011;45374;52.746;6.304;2022-10-16T01:01:09;15.77;;;5.50;;
59555;SDS011;45374;52.746;6.304;2022-10-16T01:03:35;15.55;;;4.68;;
59555;SDS011;45374;52.746;6.304;2022-10-16T01:11:46;16.38;;;4.45;;
59555;SDS011;45374;52.746;6.304;2022-10-16T01:14:16;14.18;;;4.85;;
59555;SDS011;45374;52.746;6.304;2022-10-16T01:22:35;17.77;;;4.70;;
59555;SDS011;45374;52.746;6.304;2022-10-16T01:25:09;15.65;;;5.07;;
59555;SDS011;45374;52.746;6.304;2022-10-16T01:27:50;18.17;;;4.85;;
59555;SDS011;45374;52.746;6.304;2022-10-16T01:30:18;18.00;;;5.47;;
59555;SDS011;45374;52.746;6.304;2022-10-16T01:32:55;13.27;;;4.68;;
59555;SDS011;45374;52.746;6.304;2022-10-16T01:35:32;16.85;;;4.85;;
59555;SDS011;45374;52.746;6.304;2022-10-16T01:38:04;13.48;;;4.97;;
59555;SDS011;45374;52.746;6.304;2022-10-16T01:40:39;13.38;;;4.97;;
59555;SDS011;45374;52.746;6.304;2022-10-16T01:43:11;10.93;;;4.65;;
59555;SDS011;45374;52.746;6.304;2022-10-16T01:45:40;12.82;;;5.32;;
59555;SDS011;45374;52.746;6.304;2022-10-16T01:48:09;14.65;;;5.45;;
59555;SDS011;45374;52.746;6.304;2022-10-16T01:50:39;12.05;;;5.15;;
59555;SDS011;45374;52.746;6.304;2022-10-16T01:53:08;10.77;;;5.00;;
59555;SDS011;45374;52.746;6.304;2022-10-16T01:55:38;11.65;;;5.18;;
59555;SDS011;45374;52.746;6.304;2022-10-16T01:58:10;15.98;;;5.35;;
59555;SDS011;45374;52.746;6.304;2022-10-16T02:00:38;14.82;;;5.40;;
59555;SDS011;45374;52.746;6.304;2022-10-16T02:03:07;14.70;;;5.88;;
59555;SDS011;45374;52.746;6.304;2022-10-16T02:08:07;13.77;;;5.75;;
59555;SDS011;45374;52.746;6.304;2022-10-16T02:10:32;14.45;;;5.80;;
59555;SDS011;45374;52.746;6.304;2022-10-16T02:13:03;18.73;;;5.57;;
59555;SDS011;45374;52.746;6.304;2022-10-16T02:15:42;22.57;;;5.93;;
59555;SDS011;45374;52.746;6.304;2022-10-16T02:18:08;13.48;;;5.45;;
59555;SDS011;45374;52.746;6.304;2022-10-16T02:21:18;18.98;;;5.90;;
59555;SDS011;45374;52.746;6.304;2022-10-16T02:23:37;15.32;;;5.05;;
59555;SDS011;45374;52.746;6.304;2022-10-16T02:26:30;14.13;;;5.60;;
59555;SDS011;45374;52.746;6.304;2022-10-16T02:29:14;20.15;;;6.25;;
59555;SDS011;45374;52.746;6.304;2022-10-16T02:31:43;16.40;;;5.97;;
59555;SDS011;45374;52.746;6.304;2022-10-16T02:34:13;16.65;;;6.03;;
59555;SDS011;45374;52.746;6.304;2022-10-16T02:36:41;15.98;;;5.53;;
59555;SDS011;45374;52.746;6.304;2022-10-16T02:39:08;14.10;;;5.70;;
59555;SDS011;45374;52.746;6.304;2022-10-16T02:41:34;16.50;;;6.28;;
59555;SDS011;45374;52.746;6.304;2022-10-16T02:44:00;16.00;;;6.18;;
59555;SDS011;45374;52.746;6.304;2022-10-16T02:46:25;15.45;;;5.90;;
59555;SDS011;45374;52.746;6.304;2022-10-16T02:48:51;12.70;;;5.47;;
59555;SDS011;45374;52.746;6.304;2022-10-16T02:51:17;15.43;;;5.72;;
59555;SDS011;45374;52.746;6.304;2022-10-16T02:53:42;20.05;;;5.60;;
59555;SDS011;45374;52.746;6.304;2022-10-16T02:56:08;11.35;;;5.72;;
59555;SDS011;45374;52.746;6.304;2022-10-16T02:58:33;14.52;;;6.25;;
59555;SDS011;45374;52.746;6.304;2022-10-16T03:00:59;18.45;;;5.57;;
59555;SDS011;45374;52.746;6.304;2022-10-16T03:03:25;16.65;;;5.85;;
59555;SDS011;45374;52.746;6.304;2022-10-16T03:05:50;14.43;;;5.60;;
59555;SDS011;45374;52.746;6.304;2022-10-16T03:08:16;9.45;;;5.10;;
59555;SDS011;45374;52.746;6.304;2022-10-16T03:10:42;16.45;;;5.53;;
59555;SDS011;45374;52.746;6.304;2022-10-16T03:13:08;14.05;;;5.63;;
59555;SDS011;45374;52.746;6.304;2022-10-16T03:15:33;12.68;;;5.88;;
59555;SDS011;45374;52.746;6.304;2022-10-16T03:17:59;14.13;;;5.38;;
59555;SDS011;45374;52.746;6.304;2022-10-16T03:20:25;13.80;;;5.82;;
59555;SDS011;45374;52.746;6.304;2022-10-16T03:22:51;15.75;;;5.40;;
59555;SDS011;45374;52.746;6.304;2022-10-16T03:25:17;12.82;;;5.78;;
59555;SDS011;45374;52.746;6.304;2022-10-16T03:27:42;11.60;;;6.03;;
59555;SDS011;45374;52.746;6.304;2022-10-16T03:30:08;9.60;;;5.30;;
59555;SDS011;45374;52.746;6.304;2022-10-16T03:32:34;14.75;;;5.80;;
59555;SDS011;45374;52.746;6.304;2022-10-16T03:35:00;18.95;;;6.25;;
59555;SDS011;45374;52.746;6.304;2022-10-16T03:37:25;11.90;;;5.93;;
59555;SDS011;45374;52.746;6.304;2022-10-16T03:39:51;13.68;;;6.38;;
59555;SDS011;45374;52.746;6.304;2022-10-16T03:42:17;12.35;;;5.95;;
59555;SDS011;45374;52.746;6.304;2022-10-16T03:44:42;16.38;;;6.63;;
59555;SDS011;45374;52.746;6.304;2022-10-16T03:47:08;18.30;;;6.35;;
59555;SDS011;45374;52.746;6.304;2022-10-16T03:49:34;15.55;;;6.47;;
59555;SDS011;45374;52.746;6.304;2022-10-16T03:51:59;12.18;;;6.13;;
59555;SDS011;45374;52.746;6.304;2022-10-16T03:54:25;19.23;;;7.07;;
59555;SDS011;45374;52.746;6.304;2022-10-16T03:56:51;13.95;;;6.80;;
59555;SDS011;45374;52.746;6.304;2022-10-16T03:59:16;19.38;;;6.88;;
59555;SDS011;45374;52.746;6.304;2022-10-16T04:01:42;19.05;;;7.20;;
59555;SDS011;45374;52.746;6.304;2022-10-16T04:04:07;18.77;;;7.32;;
59555;SDS011;45374;52.746;6.304;2022-10-16T04:06:33;16.85;;;6.95;;
59555;SDS011;45374;52.746;6.304;2022-10-16T04:08:59;16.08;;;6.82;;
59555;SDS011;45374;52.746;6.304;2022-10-16T04:11:24;17.20;;;7.20;;
59555;SDS011;45374;52.746;6.304;2022-10-16T04:13:50;15.48;;;6.75;;
59555;SDS011;45374;52.746;6.304;2022-10-16T04:16:15;12.88;;;7.05;;
59555;SDS011;45374;52.746;6.304;2022-10-16T04:18:41;13.38;;;6.78;;
59555;SDS011;45374;52.746;6.304;2022-10-16T04:21:07;18.75;;;7.47;;
59555;SDS011;45374;52.746;6.304;2022-10-16T04:23:33;15.95;;;7.55;;
59555;SDS011;45374;52.746;6.304;2022-10-16T04:25:59;18.08;;;7.63;;
59555;SDS011;45374;52.746;6.304;2022-10-16T04:28:25;14.68;;;6.68;;
59555;SDS011;45374;52.746;6.304;2022-10-16T04:30:51;18.48;;;8.07;;
59555;SDS011;45374;52.746;6.304;2022-10-16T04:33:17;19.48;;;7.75;;
59555;SDS011;45374;52.746;6.304;2022-10-16T04:35:43;23.48;;;7.85;;
59555;SDS011;45374;52.746;6.304;2022-10-16T04:38:08;21.40;;;8.20;;
59555;SDS011;45374;52.746;6.304;2022-10-16T04:40:34;18.40;;;8.00;;
59555;SDS011;45374;52.746;6.304;2022-10-16T04:43:02;17.67;;;7.57;;
59555;SDS011;45374;52.746;6.304;2022-10-16T04:45:28;17.73;;;7.68;;
59555;SDS011;45374;52.746;6.304;2022-10-16T04:47:56;16.63;;;7.50;;
59555;SDS011;45374;52.746;6.304;2022-10-16T04:50:23;18.42;;;8.25;;
59555;SDS011;45374;52.746;6.304;2022-10-16T04:52:48;17.27;;;7.82;;
59555;SDS011;45374;52.746;6.304;2022-10-16T04:55:14;21.23;;;8.00;;
59555;SDS011;45374;52.746;6.304;2022-10-16T04:57:40;18.90;;;8.07;;
59555;SDS011;45374;52.746;6.304;2022-10-16T05:00:05;17.58;;;7.93;;
59555;SDS011;45374;52.746;6.304;2022-10-16T05:02:32;20.17;;;8.30;;
59555;SDS011;45374;52.746;6.304;2022-10-16T05:04:59;17.52;;;7.90;;
59555;SDS011;45374;52.746;6.304;2022-10-16T05:07:25;17.65;;;8.07;;
59555;SDS011;45374;52.746;6.304;2022-10-16T05:09:50;16.85;;;7.88;;
59555;SDS011;45374;52.746;6.304;2022-10-16T05:12:16;16.50;;;7.93;;
59555;SDS011;45374;52.746;6.304;2022-10-16T05:14:42;17.77;;;8.25;;
59555;SDS011;45374;52.746;6.304;2022-10-16T05:17:08;18.35;;;8.40;;
59555;SDS011;45374;52.746;6.304;2022-10-16T05:19:33;18.30;;;8.27;;
59555;SDS011;45374;52.746;6.304;2022-10-16T05:21:59;18.50;;;7.97;;
59555;SDS011;45374;52.746;6.304;2022-10-16T05:24:24;15.55;;;8.23;;
59555;SDS011;45374;52.746;6.304;2022-10-16T05:26:50;23.92;;;8.63;;
59555;SDS011;45374;52.746;6.304;2022-10-16T05:29:16;17.40;;;7.88;;
59555;SDS011;45374;52.746;6.304;2022-10-16T05:31:42;19.73;;;8.00;;
59555;SDS011;45374;52.746;6.304;2022-10-16T05:34:07;15.65;;;7.68;;
59555;SDS011;45374;52.746;6.304;2022-10-16T05:36:33;19.15;;;8.00;;
59555;SDS011;45374;52.746;6.304;2022-10-16T05:38:59;18.48;;;7.53;;
59555;SDS011;45374;52.746;6.304;2022-10-16T05:41:24;17.30;;;6.90;;
59555;SDS011;45374;52.746;6.304;2022-10-16T05:43:51;16.27;;;7.35;;
59555;SDS011;45374;52.746;6.304;2022-10-16T05:46:18;17.27;;;7.05;;
59555;SDS011;45374;52.746;6.304;2022-10-16T05:48:43;18.55;;;7.10;;
59555;SDS011;45374;52.746;6.304;2022-10-16T05:51:10;20.15;;;7.30;;
59555;SDS011;45374;52.746;6.304;2022-10-16T05:53:37;20.08;;;7.03;;
59555;SDS011;45374;52.746;6.304;2022-10-16T05:56:04;26.40;;;7.28;;
59555;SDS011;45374;52.746;6.304;2022-10-16T05:58:32;16.98;;;7.05;;
59555;SDS011;45374;52.746;6.304;2022-10-16T06:01:01;21.73;;;7.13;;
59555;SDS011;45374;52.746;6.304;2022-10-16T06:03:29;16.17;;;6.93;;
59555;SDS011;45374;52.746;6.304;2022-10-16T06:05:54;16.77;;;6.57;;
59555;SDS011;45374;52.746;6.304;2022-10-16T06:08:21;14.13;;;6.55;;
59555;SDS011;45374;52.746;6.304;2022-10-16T06:10:48;15.43;;;6.50;;
59555;SDS011;45374;52.746;6.304;2022-10-16T06:13:24;14.52;;;6.10;;
59555;SDS011;45374;52.746;6.304;2022-10-16T06:15:50;16.02;;;6.60;;
59555;SDS011;45374;52.746;6.304;2022-10-16T06:18:16;14.90;;;6.28;;
59555;SDS011;45374;52.746;6.304;2022-10-16T06:20:41;16.00;;;6.20;;
59555;SDS011;45374;52.746;6.304;2022-10-16T06:23:07;16.08;;;6.68;;
59555;SDS011;45374;52.746;6.304;2022-10-16T06:25:33;15.10;;;6.35;;
59555;SDS011;45374;52.746;6.304;2022-10-16T06:27:59;13.07;;;6.25;;
59555;SDS011;45374;52.746;6.304;2022-10-16T06:30:24;17.13;;;6.22;;
59555;SDS011;45374;52.746;6.304;2022-10-16T06:32:50;17.33;;;6.57;;
59555;SDS011;45374;52.746;6.304;2022-10-16T06:35:15;16.02;;;6.20;;
59555;SDS011;45374;52.746;6.304;2022-10-16T06:37:41;16.00;;;5.85;;
59555;SDS011;45374;52.746;6.304;2022-10-16T06:40:07;14.27;;;5.50;;
59555;SDS011;45374;52.746;6.304;2022-10-16T06:42:33;17.52;;;5.75;;
59555;SDS011;45374;52.746;6.304;2022-10-16T06:44:58;15.20;;;5.82;;
59555;SDS011;45374;52.746;6.304;2022-10-16T06:47:24;14.43;;;5.50;;
59555;SDS011;45374;52.746;6.304;2022-10-16T06:49:49;16.83;;;5.72;;
59555;SDS011;45374;52.746;6.304;2022-10-16T06:52:15;12.63;;;5.50;;
59555;SDS011;45374;52.746;6.304;2022-10-16T06:54:41;19.13;;;6.20;;
59555;SDS011;45374;52.746;6.304;2022-10-16T06:57:06;14.48;;;5.53;;
59555;SDS011;45374;52.746;6.304;2022-10-16T06:59:32;13.15;;;5.50;;
59555;SDS011;45374;52.746;6.304;2022-10-16T07:01:57;18.25;;;5.30;;
59555;SDS011;45374;52.746;6.304;2022-10-16T07:04:23;14.32;;;5.38;;
59555;SDS011;45374;52.746;6.304;2022-10-16T07:06:49;19.38;;;6.18;;
59555;SDS011;45374;52.746;6.304;2022-10-16T07:09:14;18.23;;;5.13;;
59555;SDS011;45374;52.746;6.304;2022-10-16T07:11:40;14.73;;;5.40;;
59555;SDS011;45374;52.746;6.304;2022-10-16T07:14:12;10.73;;;4.78;;
59555;SDS011;45374;52.746;6.304;2022-10-16T07:16:41;13.25;;;5.00;;
59555;SDS011;45374;52.746;6.304;2022-10-16T07:19:10;11.50;;;4.60;;
59555;SDS011;45374;52.746;6.304;2022-10-16T07:21:37;11.73;;;4.35;;
59555;SDS011;45374;52.746;6.304;2022-10-16T07:24:03;11.98;;;4.13;;
59555;SDS011;45374;52.746;6.304;2022-10-16T07:26:33;12.43;;;4.28;;
59555;SDS011;45374;52.746;6.304;2022-10-16T07:29:00;10.88;;;3.33;;
59555;SDS011;45374;52.746;6.304;2022-10-16T07:31:26;16.38;;;4.47;;
59555;SDS011;45374;52.746;6.304;2022-10-16T07:33:52;12.48;;;3.88;;
59555;SDS011;45374;52.746;6.304;2022-10-16T07:36:19;16.48;;;3.80;;
59555;SDS011;45374;52.746;6.304;2022-10-16T07:38:45;12.57;;;3.65;;
59555;SDS011;45374;52.746;6.304;2022-10-16T07:41:15;12.25;;;3.45;;
59555;SDS011;45374;52.746;6.304;2022-10-16T07:43:46;11.35;;;3.17;;
59555;SDS011;45374;52.746;6.304;2022-10-16T07:46:13;11.40;;;3.10;;
59555;SDS011;45374;52.746;6.304;2022-10-16T07:48:39;10.75;;;2.70;;
59555;SDS011;45374;52.746;6.304;2022-10-16T07:51:05;10.45;;;2.47;;
59555;SDS011;45374;52.746;6.304;2022-10-16T07:53:31;9.82;;;2.33;;
59555;SDS011;45374;52.746;6.304;2022-10-16T07:55:58;12.45;;;2.50;;
59555;SDS011;45374;52.746;6.304;2022-10-16T07:58:24;7.70;;;2.13;;
59555;SDS011;45374;52.746;6.304;2022-10-16T08:00:50;7.70;;;2.30;;
59555;SDS011;45374;52.746;6.304;2022-10-16T08:03:16;11.10;;;2.30;;
59555;SDS011;45374;52.746;6.304;2022-10-16T08:05:42;11.73;;;2.50;;
59555;SDS011;45374;52.746;6.304;2022-10-16T08:08:11;11.48;;;2.78;;
59555;SDS011;45374;52.746;6.304;2022-10-16T08:10:38;8.23;;;2.75;;
59555;SDS011;45374;52.746;6.304;2022-10-16T08:13:04;10.02;;;3.33;;
59555;SDS011;45374;52.746;6.304;2022-10-16T08:15:29;9.82;;;4.03;;
59555;SDS011;45374;52.746;6.304;2022-10-16T08:17:59;11.05;;;4.07;;
59555;SDS011;45374;52.746;6.304;2022-10-16T08:20:27;9.68;;;4.45;;
59555;SDS011;45374;52.746;6.304;2022-10-16T08:22:53;15.77;;;4.60;;
59555;SDS011;45374;52.746;6.304;2022-10-16T08:25:20;16.25;;;4.60;;
59555;SDS011;45374;52.746;6.304;2022-10-16T08:27:47;18.20;;;5.43;;
59555;SDS011;45374;52.746;6.304;2022-10-16T08:30:13;16.05;;;5.63;;
59555;SDS011;45374;52.746;6.304;2022-10-16T08:32:39;18.63;;;5.78;;
59555;SDS011;45374;52.746;6.304;2022-10-16T08:35:06;21.45;;;6.57;;
59555;SDS011;45374;52.746;6.304;2022-10-16T08:37:32;19.60;;;5.95;;
59555;SDS011;45374;52.746;6.304;2022-10-16T08:39:58;14.95;;;5.65;;
59555;SDS011;45374;52.746;6.304;2022-10-16T08:47:48;16.92;;;6.15;;
59555;SDS011;45374;52.746;6.304;2022-10-16T08:50:35;21.27;;;6.20;;
59555;SDS011;45374;52.746;6.304;2022-10-16T08:53:03;17.17;;;6.25;;
59555;SDS011;45374;52.746;6.304;2022-10-16T08:55:38;17.80;;;5.30;;
59555;SDS011;45374;52.746;6.304;2022-10-16T09:00:46;18.42;;;5.45;;
59555;SDS011;45374;52.746;6.304;2022-10-16T09:11:59;18.63;;;4.90;;
59555;SDS011;45374;52.746;6.304;2022-10-16T09:17:22;21.80;;;5.25;;
59555;SDS011;45374;52.746;6.304;2022-10-16T09:23:12;14.45;;;4.47;;
59555;SDS011;45374;52.746;6.304;2022-10-16T09:25:42;11.35;;;4.78;;
59555;SDS011;45374;52.746;6.304;2022-10-16T09:28:09;19.88;;;5.63;;
59555;SDS011;45374;52.746;6.304;2022-10-16T09:30:35;18.83;;;4.78;;
59555;SDS011;45374;52.746;6.304;2022-10-16T09:33:04;14.60;;;4.50;;
59555;SDS011;45374;52.746;6.304;2022-10-16T09:37:57;14.30;;;3.85;;
59555;SDS011;45374;52.746;6.304;2022-10-16T09:43:57;17.85;;;4.15;;
59555;SDS011;45374;52.746;6.304;2022-10-16T09:48:28;27.65;;;4.68;;
59555;SDS011;45374;52.746;6.304;2022-10-16T09:51:04;23.45;;;4.20;;
59555;SDS011;45374;52.746;6.304;2022-10-16T09:53:37;27.02;;;4.47;;
59555;SDS011;45374;52.746;6.304;2022-10-16T09:56:04;26.20;;;4.47;;
59555;SDS011;45374;52.746;6.304;2022-10-16T09:58:31;17.25;;;4.00;;
59555;SDS011;45374;52.746;6.304;2022-10-16T10:00:58;20.58;;;4.07;;
59555;SDS011;45374;52.746;6.304;2022-10-16T10:03:35;25.13;;;4.15;;
59555;SDS011;45374;52.746;6.304;2022-10-16T10:06:07;28.80;;;4.93;;
59555;SDS011;45374;52.746;6.304;2022-10-16T10:08:58;25.58;;;4.43;;
59555;SDS011;45374;52.746;6.304;2022-10-16T10:19:53;29.17;;;5.13;;
59555;SDS011;45374;52.746;6.304;2022-10-16T10:27:40;21.20;;;4.60;;
59555;SDS011;45374;52.746;6.304;2022-10-16T10:30:23;22.55;;;4.80;;
59555;SDS011;45374;52.746;6.304;2022-10-16T10:33:09;25.02;;;6.13;;
59555;SDS011;45374;52.746;6.304;2022-10-16T10:52:13;28.90;;;5.50;;
59555;SDS011;45374;52.746;6.304;2022-10-16T11:00:52;24.75;;;5.45;;
59555;SDS011;45374;52.746;6.304;2022-10-16T11:06:12;24.05;;;4.88;;
59555;SDS011;45374;52.746;6.304;2022-10-16T11:08:53;29.95;;;6.03;;
59555;SDS011;45374;52.746;6.304;2022-10-16T11:11:34;31.60;;;4.90;;
59555;SDS011;45374;52.746;6.304;2022-10-16T11:19:40;33.72;;;5.53;;
59555;SDS011;45374;52.746;6.304;2022-10-16T11:22:13;19.05;;;4.68;;
59555;SDS011;45374;52.746;6.304;2022-10-16T11:30:30;37.93;;;4.80;;
59555;SDS011;45374;52.746;6.304;2022-10-16T11:35:39;25.92;;;5.43;;
59555;SDS011;45374;52.746;6.304;2022-10-16T11:38:14;19.48;;;4.28;;
59555;SDS011;45374;52.746;6.304;2022-10-16T11:40:48;24.90;;;5.13;;
59555;SDS011;45374;52.746;6.304;2022-10-16T11:43:21;18.65;;;4.47;;
59555;SDS011;45374;52.746;6.304;2022-10-16T11:45:57;28.67;;;6.43;;
59555;SDS011;45374;52.746;6.304;2022-10-16T11:53:57;21.13;;;4.93;;
59555;SDS011;45374;52.746;6.304;2022-10-16T11:56:32;22.80;;;4.45;;
59555;SDS011;45374;52.746;6.304;2022-10-16T12:01:41;22.00;;;5.35;;
59555;SDS011;45374;52.746;6.304;2022-10-16T12:07:18;24.95;;;4.78;;
59555;SDS011;45374;52.746;6.304;2022-10-16T12:17:52;25.85;;;4.63;;
59555;SDS011;45374;52.746;6.304;2022-10-16T12:20:20;32.92;;;5.30;;
59555;SDS011;45374;52.746;6.304;2022-10-16T12:22:56;25.45;;;5.30;;
59555;SDS011;45374;52.746;6.304;2022-10-16T12:25:42;28.13;;;4.60;;
59555;SDS011;45374;52.746;6.304;2022-10-16T12:30:40;23.15;;;4.72;;
59555;SDS011;45374;52.746;6.304;2022-10-16T12:33:21;19.38;;;4.20;;
59555;SDS011;45374;52.746;6.304;2022-10-16T12:35:49;33.83;;;5.03;;
59555;SDS011;45374;52.746;6.304;2022-10-16T12:38:20;25.58;;;3.80;;
59555;SDS011;45374;52.746;6.304;2022-10-16T12:41:00;31.83;;;4.47;;
59555;SDS011;45374;52.746;6.304;2022-10-16T12:48:34;23.85;;;3.63;;
59555;SDS011;45374;52.746;6.304;2022-10-16T12:51:22;23.70;;;3.95;;
59555;SDS011;45374;52.746;6.304;2022-10-16T12:54:19;21.17;;;3.88;;
59555;SDS011;45374;52.746;6.304;2022-10-16T13:05:05;31.45;;;4.68;;
59555;SDS011;45374;52.746;6.304;2022-10-16T13:13:13;23.90;;;4.97;;
59555;SDS011;45374;52.746;6.304;2022-10-16T13:24:12;26.50;;;4.63;;
59555;SDS011;45374;52.746;6.304;2022-10-16T13:27:43;33.53;;;4.93;;
59555;SDS011;45374;52.746;6.304;2022-10-16T13:29:53;28.45;;;4.78;;
59555;SDS011;45374;52.746;6.304;2022-10-16T13:32:25;30.00;;;4.72;;
59555;SDS011;45374;52.746;6.304;2022-10-16T13:34:51;24.98;;;3.63;;
59555;SDS011;45374;52.746;6.304;2022-10-16T13:37:19;26.02;;;4.97;;
59555;SDS011;45374;52.746;6.304;2022-10-16T13:39:49;21.48;;;4.60;;
59555;SDS011;45374;52.746;6.304;2022-10-16T13:44:53;93.38;;;8.82;;
59555;SDS011;45374;52.746;6.304;2022-10-16T13:47:25;29.55;;;4.93;;
59555;SDS011;45374;52.746;6.304;2022-10-16T13:52:37;25.77;;;4.82;;
59555;SDS011;45374;52.746;6.304;2022-10-16T13:55:04;20.00;;;4.13;;
59555;SDS011;45374;52.746;6.304;2022-10-16T13:57:37;39.38;;;4.70;;
59555;SDS011;45374;52.746;6.304;2022-10-16T14:00:16;24.65;;;4.85;;
59555;SDS011;45374;52.746;6.304;2022-10-16T14:02:43;26.10;;;4.30;;
59555;SDS011;45374;52.746;6.304;2022-10-16T14:05:09;25.52;;;4.60;;
59555;SDS011;45374;52.746;6.304;2022-10-16T14:07:35;27.02;;;5.03;;
59555;SDS011;45374;52.746;6.304;2022-10-16T14:10:06;23.35;;;4.57;;
59555;SDS011;45374;52.746;6.304;2022-10-16T14:12:45;21.50;;;4.43;;
59555;SDS011;45374;52.746;6.304;2022-10-16T14:15:18;23.55;;;4.97;;
59555;SDS011;45374;52.746;6.304;2022-10-16T14:17:45;22.45;;;5.43;;
59555;SDS011;45374;52.746;6.304;2022-10-16T14:20:14;22.35;;;4.63;;
59555;SDS011;45374;52.746;6.304;2022-10-16T14:22:41;19.00;;;4.70;;
59555;SDS011;45374;52.746;6.304;2022-10-16T14:27:55;24.13;;;4.88;;
59555;SDS011;45374;52.746;6.304;2022-10-16T14:30:30;20.48;;;5.00;;
59555;SDS011;45374;52.746;6.304;2022-10-16T14:32:58;20.02;;;5.22;;
59555;SDS011;45374;52.746;6.304;2022-10-16T14:35:30;22.48;;;5.15;;
59555;SDS011;45374;52.746;6.304;2022-10-16T14:37:56;20.98;;;5.05;;
59555;SDS011;45374;52.746;6.304;2022-10-16T14:40:24;28.95;;;5.75;;
59555;SDS011;45374;52.746;6.304;2022-10-16T14:42:52;23.02;;;5.53;;
59555;SDS011;45374;52.746;6.304;2022-10-16T14:45:19;20.90;;;5.32;;
59555;SDS011;45374;52.746;6.304;2022-10-16T14:47:47;17.92;;;5.50;;
59555;SDS011;45374;52.746;6.304;2022-10-16T14:50:24;31.60;;;6.13;;
59555;SDS011;45374;52.746;6.304;2022-10-16T14:52:50;17.08;;;4.95;;
59555;SDS011;45374;52.746;6.304;2022-10-16T14:55:16;29.52;;;5.43;;
59555;SDS011;45374;52.746;6.304;2022-10-16T14:57:42;25.67;;;5.43;;
59555;SDS011;45374;52.746;6.304;2022-10-16T15:00:10;24.50;;;5.57;;
59555;SDS011;45374;52.746;6.304;2022-10-16T15:02:46;26.50;;;6.20;;
59555;SDS011;45374;52.746;6.304;2022-10-16T15:05:20;21.80;;;5.13;;
59555;SDS011;45374;52.746;6.304;2022-10-16T15:07:48;29.30;;;5.80;;
59555;SDS011;45374;52.746;6.304;2022-10-16T15:10:15;20.35;;;6.50;;
59555;SDS011;45374;52.746;6.304;2022-10-16T15:12:42;26.30;;;5.75;;
59555;SDS011;45374;52.746;6.304;2022-10-16T15:17:53;21.85;;;6.20;;
59555;SDS011;45374;52.746;6.304;2022-10-16T15:20:22;23.42;;;5.28;;
59555;SDS011;45374;52.746;6.304;2022-10-16T15:22:48;24.33;;;5.40;;
59555;SDS011;45374;52.746;6.304;2022-10-16T15:25:25;29.02;;;5.65;;
59555;SDS011;45374;52.746;6.304;2022-10-16T15:28:00;22.67;;;5.43;;
59555;SDS011;45374;52.746;6.304;2022-10-16T15:30:26;24.92;;;5.47;;
59555;SDS011;45374;52.746;6.304;2022-10-16T15:32:52;19.40;;;5.30;;
59555;SDS011;45374;52.746;6.304;2022-10-16T15:35:18;25.70;;;5.78;;
59555;SDS011;45374;52.746;6.304;2022-10-16T15:37:44;19.10;;;5.22;;
59555;SDS011;45374;52.746;6.304;2022-10-16T15:40:11;22.90;;;5.35;;
59555;SDS011;45374;52.746;6.304;2022-10-16T15:42:37;27.50;;;5.80;;
59555;SDS011;45374;52.746;6.304;2022-10-16T15:45:03;30.17;;;5.22;;
59555;SDS011;45374;52.746;6.304;2022-10-16T15:47:29;27.98;;;6.57;;
59555;SDS011;45374;52.746;6.304;2022-10-16T15:49:54;28.17;;;6.82;;
59555;SDS011;45374;52.746;6.304;2022-10-16T15:52:20;24.83;;;6.15;;
59555;SDS011;45374;52.746;6.304;2022-10-16T15:54:46;22.83;;;5.47;;
59555;SDS011;45374;52.746;6.304;2022-10-16T15:57:11;23.55;;;6.40;;
59555;SDS011;45374;52.746;6.304;2022-10-16T15:59:37;29.13;;;6.03;;
59555;SDS011;45374;52.746;6.304;2022-10-16T16:02:02;20.95;;;5.63;;
59555;SDS011;45374;52.746;6.304;2022-10-16T16:04:31;22.50;;;6.00;;
59555;SDS011;45374;52.746;6.304;2022-10-16T16:06:57;26.40;;;6.35;;
59555;SDS011;45374;52.746;6.304;2022-10-16T16:09:22;31.25;;;5.72;;
59555;SDS011;45374;52.746;6.304;2022-10-16T16:11:48;24.52;;;5.57;;
59555;SDS011;45374;52.746;6.304;2022-10-16T16:14:14;24.55;;;6.50;;
59555;SDS011;45374;52.746;6.304;2022-10-16T16:16:39;25.25;;;5.72;;
59555;SDS011;45374;52.746;6.304;2022-10-16T16:19:06;21.80;;;5.65;;
59555;SDS011;45374;52.746;6.304;2022-10-16T16:21:32;28.33;;;6.25;;
59555;SDS011;45374;52.746;6.304;2022-10-16T16:23:58;25.50;;;6.25;;
59555;SDS011;45374;52.746;6.304;2022-10-16T16:26:25;26.67;;;6.75;;
59555;SDS011;45374;52.746;6.304;2022-10-16T16:28:53;21.17;;;6.28;;
59555;SDS011;45374;52.746;6.304;2022-10-16T16:31:19;26.50;;;7.40;;
59555;SDS011;45374;52.746;6.304;2022-10-16T16:33:45;28.05;;;7.13;;
59555;SDS011;45374;52.746;6.304;2022-10-16T16:36:11;22.00;;;7.15;;
59555;SDS011;45374;52.746;6.304;2022-10-16T16:38:36;30.10;;;6.82;;
59555;SDS011;45374;52.746;6.304;2022-10-16T16:43:37;22.02;;;7.90;;
59555;SDS011;45374;52.746;6.304;2022-10-16T16:46:02;33.92;;;7.72;;
59555;SDS011;45374;52.746;6.304;2022-10-16T16:48:28;23.77;;;7.43;;
59555;SDS011;45374;52.746;6.304;2022-10-16T16:50:54;28.13;;;7.15;;
59555;SDS011;45374;52.746;6.304;2022-10-16T16:53:19;27.73;;;8.00;;
59555;SDS011;45374;52.746;6.304;2022-10-16T16:55:46;23.65;;;8.30;;
59555;SDS011;45374;52.746;6.304;2022-10-16T16:58:12;26.70;;;7.78;;
59555;SDS011;45374;52.746;6.304;2022-10-16T17:00:44;26.05;;;7.75;;
59555;SDS011;45374;52.746;6.304;2022-10-16T17:03:10;18.15;;;7.85;;
59555;SDS011;45374;52.746;6.304;2022-10-16T17:05:36;34.83;;;8.45;;
59555;SDS011;45374;52.746;6.304;2022-10-16T17:08:01;26.20;;;8.25;;
59555;SDS011;45374;52.746;6.304;2022-10-16T17:10:27;27.42;;;7.93;;
59555;SDS011;45374;52.746;6.304;2022-10-16T17:12:53;29.40;;;8.00;;
59555;SDS011;45374;52.746;6.304;2022-10-16T17:15:18;21.90;;;7.50;;
59555;SDS011;45374;52.746;6.304;2022-10-16T17:17:44;24.92;;;8.27;;
59555;SDS011;45374;52.746;6.304;2022-10-16T17:20:09;24.33;;;8.75;;
59555;SDS011;45374;52.746;6.304;2022-10-16T17:22:35;34.20;;;8.65;;
59555;SDS011;45374;52.746;6.304;2022-10-16T17:25:01;35.13;;;9.85;;
59555;SDS011;45374;52.746;6.304;2022-10-16T17:27:28;37.28;;;10.20;;